AirNav   Pilot Hours Calculator
 
 801 users online  

20AL Runkle Stagefield Army Heliport
Fort Rucker/Elba, Alabama, USA

GOING TO FORT RUCKER/ELBA?


FAA INFORMATION EFFECTIVE 08 SEPTEMBER 2022

Location

FAA Identifier: 20AL
Lat/Long: 31-20-19.7300N 086-05-30.2900W
31-20.328833N 086-05.504833W
31.3388139,-86.0917472
(estimated)
Elevation: 180 ft. / 55 m (estimated)
Variation: 02W (2000)
From city: 4 miles S of central business district of the associated city
Time zone: UTC -5 (UTC -6 during Standard Time)
Zip code: 36323

Heliport Operations

Heliport use: Private use. Permission required prior to landing
Activation date: 05/2002
Control tower: no
ARTCC: JACKSONVILLE CENTER
FSS: ANNISTON FLIGHT SERVICE STATION
NOTAMs facility: OZR (NOTAM-D service available)
Attendance: ATTENDED DURG SKED TRNG
FOR TRNG SKED DAYS/HRS CTC AT&A OFFICER AT 334-255-9764.
Segmented circle: no

Heliport Communications

OPS: 126.2
WX AWOS-3PT at EDN (10 nm E): 118.9 (334-347-3524)
WX ASOS at 79J (16 nm W): 134.875 (334-222-9770)

Nearby radio navigation aids

VOR radial/distance  VOR name  Freq  Var
EDNr288/(10.0)ENTERPRISE VOR116.6003W
OZRr286/19.2CAIRNS VOR/DME111.2003W
HEYr268/(22.6)HANCHEY VOR110.6003W
RRSr273/34.0WIREGRASS VORTAC111.6002E

 
NDB name  Hdg/Dist  Freq  Var  ID
BOLL WEEVIL273/5.635203WBVG -... ...- --.
JUDD084/15.526402WJUY .--- ..- -.--
LOWE269/17.926903WLOR .-.. --- .-.
HANCHEY267/22.622103WHYE .... -.-- .
BLOOD183/29.536504WTOI - --- ..

Heliport Services

Runway Information

Helipad H1

Dimensions: 1600 x 75 ft. / 488 x 23 m
Surface: asphalt
Traffic pattern: leftleft

Helipad H2

Dimensions: 1600 x 75 ft. / 488 x 23 m
Surface: asphalt
Traffic pattern: leftleft

Helipad H3

Dimensions: 1600 x 75 ft. / 488 x 23 m
Surface: asphalt
Traffic pattern: leftleft

Heliport Ownership and Management from official FAA records

Ownership: U.S. Army
Owner: US ARMY AVIATION CTR & FORT RUCKER
NOVOSEL ST
FORT RUCKER, AL 36362
Phone 334-255-9764
Manager: JACK A HOLMES
USAACE G3 AIR,
FORT RUCKER, AL 36362
Phone 334-255-9764

Additional Remarks

FOR CD CTC CAIRNS APCH AT 334-255-8402 OR 334-255-8460, WHEN APCH CLSD CTC JACKSONVILLE ARTCC AT 904-845-1592.

Instrument Procedures

There are no published instrument procedures at 20AL.

Some nearby airports with instrument procedures:

KEDN - Enterprise Municipal Airport (10 nm E)
79J - South Alabama Regional Airport at Bill Benton Field (16 nm W)
KLOR - Lowe Army Heliport (Fort Rucker) (17 nm E)
KOZR - Cairns Army Airfield (Fort Rucker) (20 nm E)
33J - Geneva Municipal Airport (21 nm SE)
 
Loc | Ops | Rwys | IFR | FBO | Links
Com | Nav | Svcs | Stats | Notes
Area around 20AL (Runkle Stagefield Army Heliport)
 
Road maps at: MapQuest Bing Google
 
Aerial photo
No photo
 
Sectional chart

 
Airport distance calculator
Flying to Runkle Stagefield Army Heliport? Find the distance to fly.

From to 20AL

Sunrise and sunset
Times for 01-Oct-2022
 Local
(UTC-5)
 Zulu
(UTC)
Morning civil twilight06:1511:15
Sunrise06:3911:39
Sunset18:2923:29
Evening civil twilight18:5323:53

Current date and time
Zulu (UTC)  02-Oct-2022 02:28:39
Local (UTC-5)  01-Oct-2022 21:28:39
 
METAR
KEDN 
10nm E 
020215Z AUTO 00000KT 10SM CLR 16/09 A2994 RMK AO2 T01560091
KSXS 
12nm E 
020155Z AUTO 33006KT 10SM CLR 21/05 A2992 RMK AO2 SLP131 T02050049 TSNO $
K79J 
16nm W 
020156Z AUTO 31005KT 10SM CLR 20/07 A2995 RMK AO2 SLP137 T02000072
KLOR 
18nm E 
020155Z AUTO 00000KT 10SM CLR 14/10 A2992 RMK AO2 SLP115 T01410099 $
KOZR 
20nm E 
020155Z AUTO 30005KT 10SM CLR 19/06 A2992 RMK AO2 SLP133 T01850060 $
TAF
NOTAMs
Click for the latest NOTAMs
NOTAMs are issued by the DoD/FAA and will open in a separate window not controlled by AirNav.

 

 
 

Would you like to see your business listed on this page?

 If your business provides an interesting product or service to pilots, flight crews, aircraft, or users of the Runkle Stagefield Army Heliport, you should consider listing it here.  To start the listing process, click on the button below
 
Add a business
 

Other Pages about Runkle Stagefield Army Heliport

Update a link
 
Copyright © AirNav, LLC. All rights reserved. Privacy Policy  Contact